createdAt,value
2018-03-01T00:00:33.728Z,9.17
2018-03-01T00:03:06.662Z,12.10
2018-03-01T00:05:38.051Z,9.97
2018-03-01T00:08:08.327Z,11.00
2018-03-01T00:10:40.224Z,11.07
2018-03-01T00:13:11.217Z,8.87
2018-03-01T00:15:43.245Z,10.53
2018-03-01T00:18:15.454Z,11.80
2018-03-01T00:20:46.787Z,9.90
2018-03-01T00:23:18.395Z,10.45
2018-03-01T00:25:50.061Z,12.60
2018-03-01T00:28:21.350Z,8.93
2018-03-01T00:30:52.471Z,14.37
2018-03-01T00:33:23.799Z,11.70
2018-03-01T00:35:54.963Z,9.27
2018-03-01T00:38:26.440Z,12.30
2018-03-01T00:40:58.721Z,10.32
2018-03-01T00:43:30.689Z,10.63
2018-03-01T00:46:02.501Z,14.70
2018-03-01T00:48:33.683Z,9.97
2018-03-01T00:51:05.704Z,11.57
2018-03-01T00:53:36.927Z,10.77
2018-03-01T00:56:08.081Z,9.13
2018-03-01T00:58:39.266Z,9.73
2018-03-01T01:01:10.886Z,10.40
2018-03-01T01:03:42.259Z,11.63
2018-03-01T01:06:13.391Z,10.73
2018-03-01T01:08:44.563Z,14.07
2018-03-01T01:11:16.490Z,11.00
2018-03-01T01:13:47.647Z,9.33
2018-03-01T01:16:18.786Z,11.00
2018-03-01T01:18:51.552Z,11.47
2018-03-01T01:21:22.707Z,10.03
2018-03-01T01:23:55.495Z,12.63
2018-03-01T01:26:26.652Z,11.07
2018-03-01T01:28:57.733Z,11.20
2018-03-01T01:31:28.909Z,10.00
2018-03-01T01:34:00.080Z,15.73
2018-03-01T01:36:31.190Z,11.83
2018-03-01T01:39:02.603Z,9.57
2018-03-01T01:41:33.884Z,10.50
2018-03-01T01:44:05.069Z,11.53
2018-03-01T01:46:36.877Z,10.23
2018-03-01T01:49:07.973Z,11.77
2018-03-01T01:51:39.269Z,11.43
2018-03-01T01:54:11.470Z,10.73
2018-03-01T01:56:42.691Z,11.37
2018-03-01T01:59:13.802Z,9.90
2018-03-01T02:01:45.076Z,10.93
2018-03-01T02:04:16.204Z,9.50
2018-03-01T02:06:48.316Z,10.30
2018-03-01T02:09:20.145Z,9.20
2018-03-01T02:11:56.068Z,11.30
2018-03-01T02:14:27.279Z,10.97
2018-03-01T02:17:00.303Z,9.53
2018-03-01T02:19:31.503Z,11.50
2018-03-01T02:22:03.232Z,9.97
2018-03-01T02:24:35.345Z,10.83
2018-03-01T02:27:08.149Z,11.07
2018-03-01T02:29:39.777Z,10.40
2018-03-01T02:32:11.573Z,11.57
2018-03-01T02:34:42.882Z,9.97
2018-03-01T02:37:14.003Z,9.63
2018-03-01T02:39:45.372Z,10.07
2018-03-01T02:42:17.150Z,11.30
2018-03-01T02:44:49.301Z,10.40
2018-03-01T02:47:20.612Z,10.10
2018-03-01T02:49:51.897Z,10.27
2018-03-01T02:52:23.461Z,10.87
2018-03-01T02:54:55.591Z,9.63
2018-03-01T02:57:26.711Z,10.27
2018-03-01T02:59:59.339Z,10.73
2018-03-01T03:02:30.634Z,10.97
2018-03-01T03:05:02.829Z,9.53
2018-03-01T03:07:34.923Z,11.27
2018-03-01T03:10:06.261Z,10.47
2018-03-01T03:12:37.431Z,9.27
2018-03-01T03:15:08.038Z,11.37
2018-03-01T03:17:39.266Z,12.23
2018-03-01T03:20:09.824Z,13.47
2018-03-01T03:22:41.016Z,25.47
2018-03-01T03:25:11.552Z,10.80
2018-03-01T03:27:42.661Z,10.97
2018-03-01T03:30:13.254Z,9.77
2018-03-01T03:32:44.861Z,10.15
2018-03-01T03:35:16.143Z,13.40
2018-03-01T03:37:47.416Z,12.97
2018-03-01T03:40:19.347Z,10.63
2018-03-01T03:42:51.274Z,9.17
2018-03-01T03:45:22.445Z,9.50
2018-03-01T03:47:53.871Z,11.63
2018-03-01T03:50:25.214Z,10.47
2018-03-01T03:52:56.671Z,11.38
2018-03-01T03:55:28.521Z,10.90
2018-03-01T03:57:59.599Z,10.03
2018-03-01T04:00:30.843Z,11.23
2018-03-01T04:03:02.375Z,12.15
2018-03-01T04:05:33.950Z,10.77
2018-03-01T04:08:05.284Z,10.47
2018-03-01T04:10:36.437Z,10.17
2018-03-01T04:13:07.686Z,9.40
2018-03-01T04:15:38.939Z,10.30
2018-03-01T04:18:11.677Z,10.97
2018-03-01T04:20:42.867Z,12.15
2018-03-01T04:23:14.780Z,12.90
2018-03-01T04:25:46.054Z,15.67
2018-03-01T04:28:17.319Z,11.90
2018-03-01T04:30:48.647Z,10.27
2018-03-01T04:33:19.762Z,9.60
2018-03-01T04:35:50.847Z,12.37
2018-03-01T04:38:22.662Z,11.73
2018-03-01T04:40:53.839Z,11.40
2018-03-01T04:43:25.764Z,14.10
2018-03-01T04:45:57.163Z,10.70
2018-03-01T04:48:28.521Z,10.70
2018-03-01T04:50:59.936Z,13.17
2018-03-01T04:53:31.468Z,12.82
2018-03-01T04:56:03.052Z,12.18
2018-03-01T04:58:34.810Z,29.83
2018-03-01T05:01:06.371Z,10.40
2018-03-01T05:03:37.862Z,10.55
2018-03-01T05:06:08.966Z,12.30
2018-03-01T05:08:40.315Z,10.17
2018-03-01T05:11:12.701Z,10.75
2018-03-01T05:13:44.306Z,12.77
2018-03-01T05:16:15.613Z,9.63
2018-03-01T05:18:47.201Z,11.70
2018-03-01T05:21:18.685Z,10.05
2018-03-01T05:23:50.123Z,11.18
2018-03-01T05:26:21.302Z,11.13
2018-03-01T05:28:52.788Z,9.93
2018-03-01T05:31:25.124Z,11.10
2018-03-01T05:33:56.507Z,12.15
2018-03-01T05:36:28.108Z,11.15
2018-03-01T05:38:59.617Z,17.12
2018-03-01T05:41:31.817Z,12.57
2018-03-01T05:44:02.615Z,11.68
2018-03-01T05:46:34.175Z,10.93
2018-03-01T05:49:06.592Z,12.48
2018-03-01T05:51:38.079Z,13.18
2018-03-01T05:54:08.892Z,12.85
2018-03-01T05:56:40.649Z,12.90
2018-03-01T05:59:12.898Z,13.23
2018-03-01T06:01:44.403Z,12.73
2018-03-01T06:04:15.892Z,12.27
2018-03-01T06:06:47.701Z,12.48
2018-03-01T06:09:19.174Z,13.15
2018-03-01T06:11:50.779Z,16.95
2018-03-01T06:14:22.276Z,11.93
2018-03-01T06:16:53.798Z,12.02
2018-03-01T06:19:26.044Z,11.77
2018-03-01T06:21:57.532Z,12.80
2018-03-01T06:24:29.442Z,12.90
2018-03-01T06:27:01.669Z,14.98
2018-03-01T06:29:32.864Z,13.98
2018-03-01T06:32:04.512Z,17.67
2018-03-01T06:34:36.090Z,12.52
2018-03-01T06:37:07.554Z,10.20
2018-03-01T06:39:39.183Z,13.85
2018-03-01T06:42:10.146Z,10.02
2018-03-01T06:44:41.479Z,9.23
2018-03-01T06:47:14.265Z,12.97
2018-03-01T06:49:46.409Z,10.47
2018-03-01T06:52:18.654Z,10.43
2018-03-01T06:54:50.662Z,14.10
2018-03-01T06:57:22.803Z,12.83
2018-03-01T06:59:54.138Z,9.97
2018-03-01T07:02:25.605Z,10.13
2018-03-01T07:04:57.044Z,11.30
2018-03-01T07:07:29.321Z,15.90
2018-03-01T07:10:01.678Z,11.33
2018-03-01T07:12:34.702Z,9.60
2018-03-01T07:15:06.274Z,10.40
2018-03-01T07:17:42.218Z,10.23
2018-03-01T07:20:13.909Z,14.50
2018-03-01T07:22:45.229Z,10.97
2018-03-01T07:25:16.440Z,10.27
2018-03-01T07:27:48.555Z,13.53
2018-03-01T07:30:20.045Z,11.33
2018-03-01T07:32:52.269Z,12.23
2018-03-01T07:35:23.445Z,10.20
2018-03-01T07:37:55.456Z,11.73
2018-03-01T07:40:26.539Z,11.20
2018-03-01T07:42:57.840Z,11.93
2018-03-01T07:45:32.021Z,10.60
2018-03-01T07:48:08.146Z,12.27
2018-03-01T07:50:39.331Z,11.80
2018-03-01T07:53:10.021Z,12.93
2018-03-01T07:55:41.204Z,10.13
2018-03-01T07:58:13.188Z,11.83
2018-03-01T08:00:44.514Z,11.60
2018-03-01T08:03:15.964Z,11.67
2018-03-01T08:05:47.528Z,13.00
2018-03-01T08:08:23.775Z,11.47
2018-03-01T08:10:56.026Z,14.10
2018-03-01T08:13:27.363Z,10.87
2018-03-01T08:15:57.890Z,11.03
2018-03-01T08:18:29.012Z,8.70
2018-03-01T08:21:00.297Z,11.40
2018-03-01T08:23:31.521Z,11.23
2018-03-01T08:26:02.736Z,7.33
2018-03-01T08:28:33.962Z,9.77
2018-03-01T08:31:05.890Z,14.27
2018-03-01T08:33:37.280Z,7.20
2018-03-01T08:36:08.548Z,9.70
2018-03-01T08:38:39.764Z,6.90
2018-03-01T08:41:11.882Z,8.10
2018-03-01T08:43:44.597Z,7.87
2018-03-01T08:46:15.810Z,7.90
2018-03-01T08:48:47.201Z,6.03
2018-03-01T08:51:18.437Z,6.73
2018-03-01T08:53:49.829Z,7.03
2018-03-01T08:56:21.028Z,6.60
2018-03-01T08:58:52.202Z,8.00
2018-03-01T09:01:23.523Z,9.30
2018-03-01T09:03:55.501Z,8.23
2018-03-01T09:06:26.380Z,7.93
2018-03-01T09:08:57.693Z,8.17
2018-03-01T09:11:28.900Z,8.57
2018-03-01T09:14:01.432Z,7.63
2018-03-01T09:16:32.622Z,11.00
2018-03-01T09:19:04.045Z,16.10
2018-03-01T09:21:35.409Z,8.23
2018-03-01T09:24:06.791Z,11.20
2018-03-01T09:26:39.054Z,11.63
2018-03-01T09:29:09.688Z,10.90
2018-03-01T09:31:41.738Z,8.47
2018-03-01T09:34:15.346Z,7.23
2018-03-01T09:36:46.593Z,13.33
2018-03-01T09:39:18.623Z,7.77
2018-03-01T09:41:49.870Z,6.63
2018-03-01T09:44:21.061Z,7.27
2018-03-01T09:46:52.380Z,6.87
2018-03-01T09:49:23.681Z,10.23
2018-03-01T09:51:54.971Z,7.47
2018-03-01T09:54:26.350Z,7.43
2018-03-01T09:57:01.790Z,8.10
2018-03-01T09:59:33.052Z,9.10
2018-03-01T10:02:03.848Z,13.43
2018-03-01T10:04:36.009Z,10.27
2018-03-01T10:07:07.369Z,20.53
2018-03-01T10:09:38.650Z,14.13
2018-03-01T10:12:09.667Z,10.10
2018-03-01T10:14:41.156Z,6.57
2018-03-01T10:17:12.337Z,8.00
2018-03-01T10:19:43.612Z,7.97
2018-03-01T10:22:14.918Z,7.77
2018-03-01T10:24:46.362Z,14.63
2018-03-01T10:27:17.324Z,8.40
2018-03-01T10:29:48.746Z,8.33
2018-03-01T10:32:19.896Z,24.03
2018-03-01T10:34:51.910Z,9.77
2018-03-01T10:37:23.012Z,8.60
2018-03-01T10:39:54.330Z,8.97
2018-03-01T10:42:25.763Z,9.07
2018-03-01T10:44:57.024Z,21.97
2018-03-01T10:47:29.202Z,9.40
2018-03-01T10:50:00.502Z,8.20
2018-03-01T10:52:34.920Z,15.00
2018-03-01T10:55:06.268Z,12.13
2018-03-01T10:57:37.284Z,13.77
2018-03-01T11:00:08.231Z,20.10
2018-03-01T11:02:40.601Z,23.83
2018-03-01T11:05:11.236Z,11.77
2018-03-01T11:07:43.270Z,14.53
2018-03-01T11:10:14.940Z,11.77
2018-03-01T11:12:45.941Z,15.77
2018-03-01T11:18:00.495Z,23.50
2018-03-01T11:20:31.708Z,12.70
2018-03-01T11:23:02.952Z,16.43
2018-03-01T11:25:36.798Z,13.00
2018-03-01T11:28:07.774Z,11.97
2018-03-01T11:30:39.692Z,16.63
2018-03-01T11:33:10.280Z,13.37
2018-03-01T11:35:41.737Z,15.77
2018-03-01T11:38:14.340Z,13.10
2018-03-01T11:40:45.801Z,19.10
2018-03-01T11:43:17.019Z,13.30
2018-03-01T11:45:56.145Z,11.07
2018-03-01T11:48:27.169Z,12.83
2018-03-01T11:50:59.284Z,15.10
2018-03-01T11:53:30.698Z,43.13
2018-03-01T11:56:02.195Z,15.20
2018-03-01T11:58:33.721Z,27.17
2018-03-01T12:01:05.920Z,13.03
2018-03-01T12:03:37.980Z,12.00
2018-03-01T12:06:08.833Z,14.83
2018-03-01T12:08:40.143Z,12.67
2018-03-01T12:11:16.018Z,13.13
2018-03-01T12:13:48.648Z,25.60
2018-03-01T12:16:25.854Z,15.20
2018-03-01T12:18:57.610Z,11.80
2018-03-01T12:21:28.853Z,16.67
2018-03-01T12:24:00.217Z,13.90
2018-03-01T12:26:32.177Z,13.03
2018-03-01T12:29:03.517Z,12.40
2018-03-01T12:31:36.710Z,11.93
2018-03-01T12:34:09.538Z,15.67
2018-03-01T12:36:40.967Z,12.50
2018-03-01T12:39:16.368Z,13.60
2018-03-01T12:41:47.834Z,11.57
2018-03-01T12:44:19.847Z,28.80
2018-03-01T12:46:51.897Z,11.13
2018-03-01T12:49:22.969Z,11.97
2018-03-01T12:51:55.015Z,14.13
2018-03-01T12:54:25.989Z,29.90
2018-03-01T12:56:57.991Z,12.13
2018-03-01T12:59:29.207Z,12.93
2018-03-01T13:02:01.310Z,14.90
2018-03-01T13:04:39.373Z,13.90
2018-03-01T13:07:15.405Z,11.67
2018-03-01T13:09:51.362Z,16.33
2018-03-01T13:12:22.562Z,45.73
2018-03-01T13:14:53.571Z,13.77
2018-03-01T13:17:24.881Z,13.93
2018-03-01T13:19:57.465Z,11.40
2018-03-01T13:22:28.506Z,14.10
2018-03-01T13:24:59.622Z,12.80
2018-03-01T13:27:30.796Z,12.37
2018-03-01T13:30:12.406Z,19.73
2018-03-01T13:32:46.283Z,10.93
2018-03-01T13:35:18.685Z,12.77
2018-03-01T13:37:50.245Z,14.37
2018-03-01T13:40:22.131Z,19.40
2018-03-01T13:42:54.925Z,13.53
2018-03-01T13:45:26.573Z,11.10
2018-03-01T13:47:59.487Z,11.57
2018-03-01T13:50:31.301Z,19.13
2018-03-01T13:53:02.517Z,18.70
2018-03-01T13:55:39.149Z,12.37
2018-03-01T13:58:09.811Z,26.07
2018-03-01T14:00:41.010Z,12.53
2018-03-01T14:03:12.160Z,35.33
2018-03-01T14:05:43.837Z,16.73
2018-03-01T14:08:21.200Z,13.43
2018-03-01T14:10:57.322Z,12.03
2018-03-01T14:13:34.739Z,10.87
2018-03-01T14:16:05.434Z,9.27
2018-03-01T14:18:53.623Z,17.03
2018-03-01T14:21:44.089Z,10.73
2018-03-01T14:24:34.804Z,15.13
2018-03-01T14:27:08.579Z,19.73
2018-03-01T14:29:52.543Z,9.20
2018-03-01T14:32:23.953Z,13.30
2018-03-01T14:34:55.265Z,12.17
2018-03-01T14:37:28.249Z,9.03
2018-03-01T14:39:59.944Z,11.83
2018-03-01T14:42:36.448Z,10.33
2018-03-01T14:45:08.937Z,15.17
2018-03-01T14:47:40.119Z,10.50
2018-03-01T14:50:10.739Z,14.93
2018-03-01T14:52:41.895Z,13.50
2018-03-01T14:55:13.418Z,13.13
2018-03-01T14:57:53.108Z,8.63
2018-03-01T15:00:25.559Z,11.20
2018-03-01T15:02:58.922Z,10.63
2018-03-01T15:05:30.254Z,14.47
2018-03-01T15:08:01.557Z,11.60
2018-03-01T15:10:32.971Z,14.70
2018-03-01T15:13:04.306Z,10.17
2018-03-01T15:15:34.722Z,10.97
2018-03-01T15:18:05.712Z,8.50
2018-03-01T15:20:36.311Z,14.37
2018-03-01T15:23:07.952Z,12.53
2018-03-01T15:25:39.163Z,13.50
2018-03-01T15:28:10.436Z,9.07
2018-03-01T15:30:41.692Z,25.17
2018-03-01T15:33:14.515Z,13.70
2018-03-01T15:35:45.712Z,9.60
2018-03-01T15:38:17.093Z,11.40
2018-03-01T15:40:48.481Z,15.47
2018-03-01T15:43:19.696Z,10.97
2018-03-01T15:45:50.869Z,12.07
2018-03-01T15:48:22.051Z,10.73
2018-03-01T15:50:53.981Z,10.50
2018-03-01T15:53:25.154Z,28.60
2018-03-01T15:55:56.371Z,16.23
2018-03-01T15:58:27.509Z,26.83
2018-03-01T16:00:58.866Z,16.27
2018-03-01T16:03:30.777Z,28.33
2018-03-01T16:06:02.100Z,17.03
2018-03-01T16:08:33.267Z,19.30
2018-03-01T16:11:04.508Z,20.27
2018-03-01T16:13:35.684Z,22.00
2018-03-01T16:16:08.181Z,21.70
2018-03-01T16:18:39.179Z,22.17
2018-03-01T16:21:14.810Z,19.47
2018-03-01T16:23:46.269Z,24.67
2018-03-01T16:26:17.671Z,21.67
2018-03-01T16:28:48.873Z,22.23
2018-03-01T16:31:19.755Z,20.23
2018-03-01T16:33:51.693Z,26.30
2018-03-01T16:36:24.186Z,24.47
2018-03-01T16:38:55.563Z,21.20
2018-03-01T16:41:32.654Z,22.80
2018-03-01T16:44:08.473Z,21.33
2018-03-01T16:46:43.078Z,21.10
2018-03-01T16:49:21.137Z,23.37
2018-03-01T16:51:53.994Z,26.60
2018-03-01T16:54:25.311Z,22.77
2018-03-01T16:56:56.674Z,23.23
2018-03-01T16:59:27.888Z,21.53
2018-03-01T17:01:59.064Z,22.63
2018-03-01T17:04:30.260Z,21.30
2018-03-01T17:07:01.681Z,20.27
2018-03-01T17:09:33.075Z,25.33
2018-03-01T17:12:07.462Z,20.07
2018-03-01T17:14:38.765Z,26.80
2018-03-01T17:17:10.941Z,24.57
2018-03-01T17:19:42.137Z,19.70
2018-03-01T17:22:15.785Z,22.70
2018-03-01T17:24:47.091Z,19.73
2018-03-01T17:27:18.244Z,20.20
2018-03-01T17:29:49.051Z,21.23
2018-03-01T17:32:21.271Z,20.87
2018-03-01T17:34:56.702Z,20.37
2018-03-01T17:37:32.850Z,19.73
2018-03-01T17:40:08.803Z,19.47
2018-03-01T17:42:45.249Z,15.83
2018-03-01T17:45:21.595Z,18.00
2018-03-01T17:47:53.002Z,18.30
2018-03-01T17:50:24.152Z,19.37
2018-03-01T17:52:55.815Z,18.90
2018-03-01T17:55:31.937Z,19.37
2018-03-01T17:58:03.438Z,19.63
2018-03-01T18:00:34.722Z,18.37
2018-03-01T18:03:06.033Z,22.70
2018-03-01T18:05:40.255Z,18.43
2018-03-01T18:08:12.442Z,20.30
2018-03-01T18:10:43.718Z,23.77
2018-03-01T18:13:14.937Z,20.87
2018-03-01T18:15:46.115Z,18.50
2018-03-01T18:18:17.801Z,20.77
2018-03-01T18:20:48.996Z,20.53
2018-03-01T18:23:20.386Z,22.93
2018-03-01T18:25:52.305Z,19.17
2018-03-01T18:28:27.348Z,21.53
2018-03-01T18:30:59.289Z,53.70
2018-03-01T18:33:30.497Z,25.17
2018-03-01T18:36:01.603Z,21.77
2018-03-01T18:38:32.756Z,21.53
2018-03-01T18:41:04.798Z,21.70
2018-03-01T18:43:36.895Z,20.57
2018-03-01T18:46:08.210Z,20.37
2018-03-01T18:48:39.492Z,27.33
2018-03-01T18:51:10.033Z,19.73
2018-03-01T18:53:41.505Z,23.33
2018-03-01T18:56:12.897Z,19.80
2018-03-01T18:58:44.668Z,20.07
2018-03-01T19:01:16.702Z,20.70
2018-03-01T19:03:48.006Z,29.60
2018-03-01T19:06:19.194Z,29.07
2018-03-01T19:08:50.356Z,20.33
2018-03-01T19:11:27.857Z,22.93
2018-03-01T19:13:59.448Z,19.87
2018-03-01T19:16:30.623Z,22.20
2018-03-01T19:19:01.951Z,25.53
2018-03-01T19:21:34.239Z,21.70
2018-03-01T19:24:05.514Z,21.60
2018-03-01T19:26:37.708Z,22.97
2018-03-01T19:29:09.158Z,21.87
2018-03-01T19:31:40.634Z,22.73
2018-03-01T19:34:12.790Z,19.97
2018-03-01T19:36:44.266Z,19.53
2018-03-01T19:39:15.873Z,20.37
2018-03-01T19:41:47.497Z,24.80
2018-03-01T19:44:23.673Z,21.70
2018-03-01T19:46:55.113Z,22.93
2018-03-01T19:49:27.305Z,23.40
2018-03-01T19:51:58.614Z,21.00
2018-03-01T19:54:30.107Z,22.47
2018-03-01T19:57:01.560Z,21.17
2018-03-01T19:59:33.962Z,22.60
2018-03-01T20:02:04.954Z,21.30
2018-03-01T20:04:37.964Z,22.43
2018-03-01T20:07:09.460Z,23.60
2018-03-01T20:09:40.991Z,21.07
2018-03-01T20:12:12.374Z,23.53
2018-03-01T20:14:43.907Z,20.07
2018-03-01T20:17:15.076Z,26.43
2018-03-01T20:19:48.486Z,23.63
2018-03-01T20:22:20.612Z,21.07
2018-03-01T20:24:51.831Z,23.17
2018-03-01T20:27:23.735Z,25.53
2018-03-01T20:30:00.635Z,22.87
2018-03-01T20:32:35.708Z,21.93
2018-03-01T20:35:11.973Z,25.10
2018-03-01T20:37:44.255Z,23.07
2018-03-01T20:40:15.361Z,21.50
2018-03-01T20:42:46.641Z,21.43
2018-03-01T20:45:17.731Z,20.30
2018-03-01T20:47:49.566Z,23.10
2018-03-01T20:50:21.057Z,23.00
2018-03-01T20:52:52.356Z,23.73
2018-03-01T20:55:23.760Z,23.87
2018-03-01T20:57:54.973Z,24.63
2018-03-01T21:00:26.377Z,23.83
2018-03-01T21:02:58.351Z,23.03
2018-03-01T21:05:30.366Z,23.73
2018-03-01T21:08:01.574Z,23.50
2018-03-01T21:10:32.525Z,23.67
2018-03-01T21:13:03.841Z,22.83
2018-03-01T21:15:34.849Z,25.03
2018-03-01T21:18:05.728Z,24.57
2018-03-01T21:20:41.465Z,23.13
2018-03-01T21:23:19.693Z,20.73
2018-03-01T21:25:51.371Z,24.30
2018-03-01T21:28:22.586Z,23.67
2018-03-01T21:30:54.407Z,23.77
2018-03-01T21:33:25.585Z,23.73
2018-03-01T21:35:56.753Z,23.03
2018-03-01T21:38:27.859Z,23.20
2018-03-01T21:40:59.068Z,23.30
2018-03-01T21:43:29.695Z,23.33
2018-03-01T21:46:01.625Z,25.63
2018-03-01T21:48:32.660Z,25.73
2018-03-01T21:51:03.946Z,24.90
2018-03-01T21:53:35.280Z,25.27
2018-03-01T21:56:07.251Z,26.07
2018-03-01T21:58:38.087Z,22.87
2018-03-01T22:01:08.699Z,22.17
2018-03-01T22:03:39.979Z,22.07
2018-03-01T22:06:11.514Z,24.17
2018-03-01T22:08:43.587Z,23.83
2018-03-01T22:11:14.779Z,25.37
2018-03-01T22:13:45.597Z,25.73
2018-03-01T22:16:16.919Z,27.17
2018-03-01T22:18:47.772Z,32.30
2018-03-01T22:21:18.621Z,25.97
2018-03-01T22:23:49.997Z,21.80
2018-03-01T22:26:21.133Z,23.60
2018-03-01T22:28:52.127Z,22.73
2018-03-01T22:31:23.467Z,22.70
2018-03-01T22:33:54.544Z,26.90
2018-03-01T22:36:29.897Z,28.00
2018-03-01T22:39:01.671Z,23.57
2018-03-01T22:41:34.037Z,23.27
2018-03-01T22:44:05.704Z,21.80
2018-03-01T22:46:37.215Z,23.63
2018-03-01T22:49:07.729Z,23.63
2018-03-01T22:51:38.177Z,25.17
2018-03-01T22:54:08.725Z,26.63
2018-03-01T22:56:39.899Z,25.70
2018-03-01T22:59:10.847Z,23.87
2018-03-01T23:01:43.075Z,25.10
2018-03-01T23:04:13.884Z,22.47
2018-03-01T23:06:45.157Z,23.27
2018-03-01T23:09:16.259Z,21.70
2018-03-01T23:11:51.883Z,23.30
2018-03-01T23:14:23.963Z,22.77
2018-03-01T23:16:55.154Z,25.57
2018-03-01T23:19:32.099Z,23.63
2018-03-01T23:22:06.668Z,24.27
2018-03-01T23:24:37.991Z,21.37
2018-03-01T23:27:10.669Z,30.00
2018-03-01T23:29:45.961Z,23.80
2018-03-01T23:32:17.912Z,22.13
2018-03-01T23:34:49.330Z,23.30
2018-03-01T23:37:20.364Z,22.83
2018-03-01T23:39:51.581Z,26.40
2018-03-01T23:42:22.765Z,27.13
2018-03-01T23:44:54.482Z,22.83
2018-03-01T23:47:30.127Z,27.00
2018-03-01T23:50:01.381Z,24.37
2018-03-01T23:52:33.946Z,21.60
2018-03-01T23:55:05.115Z,23.43
2018-03-01T23:57:36.285Z,25.50
